Time;durP1;ratioP1;P1;durP2;ratioP2;P2;SDS_P1;SDS_P2;PMS_P1;PMS_P2;Temp;Humidity;BMP_temperature;BMP_pressure;BME280_temperature;BME280_humidity;BME280_pressure;Samples;Min_cycle;Max_cycle;Signal;HPM_P1;HPM_P2
2022/06/21 00:02:12;;;;;;;2.65;0.93;;;21.90;60.40;;;;;;5070430;28;20041;-60
2022/06/21 00:04:37;;;;;;;3.35;0.90;;;22.00;60.50;;;;;;5071674;28;20044;-60
2022/06/21 00:07:03;;;;;;;3.47;0.90;;;22.00;60.50;;;;;;5070727;28;20045;-60
2022/06/21 00:09:29;;;;;;;3.35;0.93;;;22.00;60.50;;;;;;5071332;28;20083;-60
2022/06/21 00:11:54;;;;;;;2.65;0.80;;;22.00;60.50;;;;;;5071575;28;20087;-60
2022/06/21 00:14:20;;;;;;;3.80;0.90;;;22.00;60.50;;;;;;5071972;28;20056;-60
2022/06/21 00:16:46;;;;;;;3.67;0.90;;;21.90;60.40;;;;;;5070819;28;20055;-60
2022/06/21 00:19:18;;;;;;;3.45;0.90;;;21.90;60.40;;;;;;5071844;28;20049;-60
2022/06/21 00:21:44;;;;;;;1.83;0.90;;;21.90;60.40;;;;;;5074715;28;20068;-60
2022/06/21 00:24:10;;;;;;;2.55;0.65;;;21.90;60.40;;;;;;5057290;28;20396;-60
2022/06/21 00:26:36;;;;;;;3.70;0.90;;;21.90;60.40;;;;;;5074627;28;20059;-60
2022/06/21 00:29:01;;;;;;;1.73;0.70;;;21.90;60.40;;;;;;5075198;28;20049;-60
2022/06/21 00:31:31;;;;;;;2.97;0.82;;;21.90;60.40;;;;;;5074776;28;20041;-60
2022/06/21 00:33:57;;;;;;;3.10;0.65;;;21.90;60.40;;;;;;5074789;28;20556;-60
2022/06/21 00:36:30;;;;;;;3.08;0.80;;;21.80;60.40;;;;;;5075686;28;20225;-60
2022/06/21 00:38:56;;;;;;;4.25;0.90;;;21.80;60.30;;;;;;5073418;28;20068;-60
2022/06/21 00:41:32;;;;;;;2.65;0.80;;;21.90;60.40;;;;;;5073970;28;20044;-60
2022/06/21 00:43:58;;;;;;;4.38;0.90;;;21.80;60.40;;;;;;5057381;28;20519;-60
2022/06/21 00:46:33;;;;;;;3.45;0.90;;;21.80;60.50;;;;;;5056411;28;20047;-60
2022/06/21 00:48:59;;;;;;;2.30;0.80;;;21.80;60.40;;;;;;5073676;28;20048;-60
2022/06/21 00:51:35;;;;;;;3.53;0.73;;;21.80;60.40;;;;;;5056454;28;20047;-60
2022/06/21 00:54:10;;;;;;;2.33;0.70;;;21.80;60.40;;;;;;5058231;28;20078;-61
2022/06/21 00:56:40;;;;;;;3.47;0.60;;;21.80;60.40;;;;;;5074614;28;20044;-60
2022/06/21 00:59:20;;;;;;;1.17;0.60;;;21.80;60.40;;;;;;5056518;28;20094;-60
2022/06/21 01:01:46;;;;;;;3.22;0.80;;;21.80;60.30;;;;;;5074554;28;20036;-61
2022/06/21 01:04:17;;;;;;;1.83;0.60;;;21.80;60.30;;;;;;5073910;28;20506;-60
2022/06/21 01:06:45;;;;;;;2.85;0.70;;;21.80;60.40;;;;;;5056682;28;20064;-61
2022/06/21 01:09:14;;;;;;;;;;;21.80;60.40;;;;;;5074258;28;20044;-60
2022/06/21 01:11:46;;;;;;;3.72;0.93;;;21.80;60.30;;;;;;5074813;28;19990;-60
2022/06/21 01:14:12;;;;;;;3.65;0.73;;;21.80;60.50;;;;;;5056558;28;20040;-60
2022/06/21 01:16:37;;;;;;;2.20;0.80;;;21.80;60.40;;;;;;5073544;28;20538;-60
2022/06/21 01:19:03;;;;;;;3.78;0.80;;;21.80;60.40;;;;;;5072830;28;20217;-61
2022/06/21 01:21:29;;;;;;;2.25;0.90;;;21.80;60.40;;;;;;5072295;28;20091;-60
2022/06/21 01:24:07;;;;;;;1.67;0.80;;;21.80;60.40;;;;;;5072967;28;20071;-61
2022/06/21 01:26:49;;;;;;;3.88;1.00;;;21.70;60.40;;;;;;5074089;28;20483;-61
2022/06/21 01:29:17;;;;;;;1.75;0.68;;;21.70;60.30;;;;;;5073697;28;20052;-60
2022/06/21 01:31:42;;;;;;;3.38;1.10;;;21.70;60.30;;;;;;5072063;28;20044;-61
2022/06/21 01:34:20;;;;;;;2.53;0.70;;;21.70;60.30;;;;;;5072522;28;20050;-61
2022/06/21 01:36:50;;;;;;;2.57;0.77;;;21.70;60.30;;;;;;5073094;28;20045;-61
2022/06/21 01:39:35;;;;;;;2.53;0.70;;;21.70;60.30;;;;;;5073284;28;20036;-60
2022/06/21 01:42:07;;;;;;;3.03;0.60;;;21.70;60.30;;;;;;5072115;28;20076;-60
2022/06/21 01:44:35;;;;;;;2.80;0.80;;;21.70;60.40;;;;;;5073758;28;20055;-60
2022/06/21 01:47:01;;;;;;;3.08;0.77;;;21.70;60.40;;;;;;5072801;28;20086;-60
2022/06/21 01:49:28;;;;;;;2.40;0.70;;;21.70;60.70;;;;;;5071525;28;20048;-61
2022/06/21 01:52:09;;;;;;;1.77;0.60;;;21.70;60.40;;;;;;5073810;28;20066;-62
2022/06/21 01:54:36;;;;;;;1.92;0.50;;;21.70;60.40;;;;;;5056474;28;20048;-61
2022/06/21 01:57:01;;;;;;;1.48;0.50;;;21.70;60.40;;;;;;5055292;28;20056;-61
2022/06/21 01:59:30;;;;;;;3.38;0.65;;;21.70;60.40;;;;;;5073754;28;20041;-60
2022/06/21 02:02:01;;;;;;;1.73;0.60;;;21.70;60.40;;;;;;5071256;28;20043;-60
2022/06/21 02:04:28;;;;;;;1.63;0.50;;;21.70;60.40;;;;;;5073518;28;20044;-61
2022/06/21 02:06:54;;;;;;;1.27;0.52;;;21.60;60.30;;;;;;5072199;28;20044;-60
2022/06/21 02:09:24;;;;;;;2.38;0.68;;;21.60;60.30;;;;;;5055125;28;20105;-60
2022/06/21 02:11:54;;;;;;;1.73;0.50;;;21.60;60.30;;;;;;5072099;28;20040;-61
2022/06/21 02:14:29;;;;;;;4.18;0.80;;;21.60;60.30;;;;;;5072138;28;20048;-61
2022/06/21 02:17:10;;;;;;;1.63;0.65;;;21.60;60.30;;;;;;5072601;28;20047;-60
2022/06/21 02:19:54;;;;;;;2.83;0.70;;;21.60;60.30;;;;;;5072165;28;20124;-60
2022/06/21 02:22:25;;;;;;;2.17;0.60;;;21.60;60.30;;;;;;5071353;28;20404;-60
2022/06/21 02:24:51;;;;;;;1.27;0.50;;;21.60;60.30;;;;;;5071232;28;20041;-61
2022/06/21 02:27:18;;;;;;;1.02;0.50;;;21.60;60.30;;;;;;5072247;28;20043;-61
2022/06/21 02:29:47;;;;;;;1.80;0.52;;;21.60;60.30;;;;;;5071855;28;20044;-61
2022/06/21 02:32:21;;;;;;;1.65;0.50;;;21.60;60.30;;;;;;5072499;28;20048;-61
2022/06/21 02:34:46;;;;;;;1.75;0.60;;;21.60;60.30;;;;;;5071433;28;20146;-61
2022/06/21 02:37:13;;;;;;;1.55;0.70;;;21.60;60.30;;;;;;5071154;28;20037;-61
2022/06/21 02:39:38;;;;;;;1.70;0.60;;;21.60;60.30;;;;;;5071771;28;20044;-61
2022/06/21 02:42:15;;;;;;;3.30;1.08;;;21.60;60.30;;;;;;5054695;28;20053;-60
2022/06/21 02:44:47;;;;;;;1.80;0.80;;;21.60;60.90;;;;;;5054513;28;20036;-60
2022/06/21 02:47:15;;;;;;;2.20;0.50;;;21.60;60.30;;;;;;5071711;28;20047;-60
2022/06/21 02:49:48;;;;;;;1.83;0.52;;;21.50;60.30;;;;;;5071655;28;20044;-60
2022/06/21 02:52:21;;;;;;;1.55;0.57;;;21.50;60.20;;;;;;5055125;28;20049;-61
2022/06/21 02:55:10;;;;;;;2.20;0.52;;;21.50;60.30;;;;;;5055127;28;20438;-60
2022/06/21 02:57:38;;;;;;;2.70;0.70;;;21.50;60.20;;;;;;5071614;28;20048;-60
2022/06/21 03:00:04;;;;;;;2.60;0.68;;;21.50;60.20;;;;;;5054082;28;20115;-60
2022/06/21 03:02:31;;;;;;;2.75;0.60;;;21.50;60.20;;;;;;5072832;28;20048;-60
2022/06/21 03:04:58;;;;;;;2.00;0.50;;;21.50;60.20;;;;;;5071351;28;20036;-59
2022/06/21 03:07:27;;;;;;;1.25;0.50;;;21.50;60.20;;;;;;5070719;28;20094;-59
2022/06/21 03:09:53;;;;;;;1.90;0.80;;;21.50;60.30;;;;;;5071026;28;20041;-60
2022/06/21 03:12:23;;;;;;;1.88;0.60;;;21.50;60.30;;;;;;5070616;28;20139;-59
2022/06/21 03:14:50;;;;;;;1.85;0.60;;;21.50;60.30;;;;;;5071060;28;20044;-61
2022/06/21 03:17:18;;;;;;;1.58;0.50;;;21.50;60.30;;;;;;5072715;28;20047;-61
2022/06/21 03:19:49;;;;;;;1.40;0.55;;;21.50;60.30;;;;;;5070328;28;20094;-61
2022/06/21 03:22:23;;;;;;;2.22;0.50;;;21.50;60.30;;;;;;5071009;28;20113;-61
2022/06/21 03:24:50;;;;;;;2.72;0.65;;;21.50;60.20;;;;;;5072347;28;20048;-61
2022/06/21 03:27:24;;;;;;;2.85;0.60;;;21.50;60.20;;;;;;5053767;28;20059;-61
2022/06/21 03:29:50;;;;;;;0.68;0.40;;;21.40;60.20;;;;;;5072172;28;20132;-61
2022/06/21 03:32:16;;;;;;;1.75;0.50;;;21.40;60.10;;;;;;5072674;28;20460;-61
2022/06/21 03:34:41;;;;;;;1.17;0.60;;;21.40;60.10;;;;;;5071242;28;20091;-61
2022/06/21 03:37:07;;;;;;;3.10;0.70;;;21.40;60.20;;;;;;5071334;28;20040;-61
2022/06/21 03:42:18;;;;;;;1.80;0.55;;;21.40;60.20;;;;;;5071420;28;20135;-61
2022/06/21 03:44:48;;;;;;;2.17;0.70;;;21.40;60.20;;;;;;5071049;28;20086;-61
2022/06/21 03:47:39;;;;;;;1.90;0.52;;;21.40;60.10;;;;;;5070460;28;20173;-60
2022/06/21 03:50:16;;;;;;;2.28;0.60;;;21.40;60.10;;;;;;5069111;28;20084;-60
2022/06/21 03:52:48;;;;;;;2.33;0.60;;;21.40;60.10;;;;;;5070773;28;20123;-60
2022/06/21 03:55:35;;;;;;;2.03;0.80;;;21.30;60.00;;;;;;5072970;28;20496;-60
2022/06/21 03:58:21;;;;;;;1.92;0.50;;;21.40;60.10;;;;;;5060281;28;20057;-60
2022/06/21 04:00:58;;;;;;;1.58;0.43;;;21.40;60.10;;;;;;5058562;28;20378;-60
2022/06/21 04:03:36;;;;;;;2.55;1.05;;;21.40;60.20;;;;;;5056128;28;20049;-60
2022/06/21 04:06:11;;;;;;;1.27;0.50;;;21.40;60.20;;;;;;5054909;28;20056;-61
2022/06/21 04:09:08;;;;;;;1.33;0.55;;;21.30;60.10;;;;;;5068935;28;20151;-61
2022/06/21 04:12:11;;;;;;;1.30;0.50;;;21.30;60.20;;;;;;5054151;28;20377;-61
2022/06/21 04:14:46;;;;;;;3.10;0.60;;;21.40;60.80;;;;;;5055635;28;20146;-60
2022/06/21 04:17:30;;;;;;;2.03;0.60;;;21.30;60.20;;;;;;5055423;28;20071;-61
2022/06/21 04:20:02;;;;;;;2.35;0.60;;;21.40;60.30;;;;;;5055635;28;20065;-61
2022/06/21 04:22:50;;;;;;;2.92;0.60;;;21.40;60.30;;;;;;5087134;28;20123;-61
2022/06/21 04:25:45;;;;;;;2.45;0.60;;;21.40;60.30;;;;;;5054147;28;20033;-61
2022/06/21 04:28:17;;;;;;;2.75;0.70;;;21.40;60.30;;;;;;5083055;28;20041;-61
2022/06/21 04:31:04;;;;;;;3.05;0.60;;;21.40;60.30;;;;;;5086865;28;20045;-61
2022/06/21 04:33:37;;;;;;;1.65;0.80;;;21.40;60.30;;;;;;5085147;28;20049;-61
2022/06/21 04:36:10;;;;;;;1.70;0.50;;;21.40;60.30;;;;;;5086522;28;20082;-61
2022/06/21 04:38:45;;;;;;;2.08;0.63;;;21.40;60.30;;;;;;5069620;28;20396;-61
2022/06/21 04:41:17;;;;;;;2.30;0.68;;;21.40;60.40;;;;;;5055272;28;20507;-61
2022/06/21 04:43:57;;;;;;;2.25;0.65;;;21.50;60.40;;;;;;5069104;28;20561;-61
2022/06/21 04:46:58;;;;;;;2.58;0.50;;;21.50;60.40;;;;;;5086410;28;20446;-61
2022/06/21 04:49:46;;;;;;;1.45;0.82;;;21.50;60.40;;;;;;5082735;28;20049;-61
2022/06/21 04:52:19;;;;;;;2.67;0.60;;;21.50;60.40;;;;;;5053333;28;20056;-60
2022/06/21 04:54:44;;;;;;;2.03;0.70;;;21.50;60.40;;;;;;5055188;28;20120;-61
2022/06/21 04:57:20;;;;;;;2.72;1.05;;;21.50;60.40;;;;;;5055308;28;20137;-61
2022/06/21 04:59:53;;;;;;;3.40;0.90;;;21.50;60.30;;;;;;5085926;28;20408;-61
2022/06/21 05:02:23;;;;;;;1.92;0.60;;;21.50;60.30;;;;;;5054829;28;20485;-61
2022/06/21 05:04:53;;;;;;;1.25;0.60;;;21.50;60.40;;;;;;5085567;28;20064;-61
2022/06/21 05:07:21;;;;;;;2.05;0.50;;;21.60;60.40;;;;;;5054195;28;20120;-61
2022/06/21 05:09:47;;;;;;;3.42;0.63;;;21.50;60.40;;;;;;5054444;28;20068;-61
2022/06/21 05:12:25;;;;;;;2.05;0.50;;;21.50;60.30;;;;;;5086161;28;20080;-61
2022/06/21 05:14:56;;;;;;;2.28;0.70;;;21.60;60.40;;;;;;5068684;28;20154;-61
2022/06/21 05:17:22;;;;;;;1.30;0.73;;;21.60;60.40;;;;;;5054788;28;20081;-61
2022/06/21 05:19:51;;;;;;;2.53;0.77;;;21.50;60.30;;;;;;5053862;28;20076;-61
2022/06/21 05:22:30;;;;;;;2.17;0.80;;;21.60;60.40;;;;;;5085963;28;20045;-60
2022/06/21 05:24:57;;;;;;;1.80;0.73;;;21.50;60.30;;;;;;5069492;28;20477;-61
2022/06/21 05:27:27;;;;;;;2.33;0.60;;;21.60;60.40;;;;;;5086144;28;20049;-61
2022/06/21 05:29:55;;;;;;;2.13;0.65;;;21.50;60.40;;;;;;5085613;28;20488;-61
2022/06/21 05:32:27;;;;;;;1.58;0.50;;;21.50;60.40;;;;;;5069766;28;20056;-60
2022/06/21 05:34:53;;;;;;;1.45;0.90;;;21.50;60.50;;;;;;5085938;28;20098;-60
2022/06/21 05:37:32;;;;;;;1.65;0.70;;;21.50;60.50;;;;;;5086356;28;20416;-60
2022/06/21 05:39:59;;;;;;;1.23;0.55;;;21.50;60.50;;;;;;5053260;28;20052;-61
2022/06/21 05:42:25;;;;;;;1.02;0.60;;;21.50;60.60;;;;;;5069450;28;20064;-60
2022/06/21 05:45:12;;;;;;;1.67;0.85;;;21.50;60.70;;;;;;5086331;28;20120;-60
2022/06/21 05:47:41;;;;;;;2.08;0.80;;;21.50;60.60;;;;;;5053087;28;20442;-60
2022/06/21 05:50:08;;;;;;;1.30;0.70;;;21.40;60.70;;;;;;5086017;28;20396;-60
2022/06/21 05:52:36;;;;;;;1.88;0.63;;;21.40;60.60;;;;;;5069157;28;20033;-61
2022/06/21 05:55:05;;;;;;;2.58;0.95;;;21.50;60.70;;;;;;5085201;28;20064;-60
2022/06/21 05:57:38;;;;;;;3.38;0.90;;;21.50;60.70;;;;;;5054132;28;20064;-60
2022/06/21 06:00:06;;;;;;;2.47;0.70;;;21.50;61.40;;;;;;5086008;28;20062;-60
2022/06/21 06:02:42;;;;;;;3.95;0.80;;;21.40;60.60;;;;;;5053245;28;20048;-60
2022/06/21 06:05:17;;;;;;;2.83;0.80;;;21.40;60.70;;;;;;5086062;28;20052;-60
2022/06/21 06:07:48;;;;;;;1.48;0.63;;;21.40;60.80;;;;;;5068314;28;20049;-60
2022/06/21 06:10:13;;;;;;;1.83;0.70;;;21.40;61.40;;;;;;5052910;28;20129;-60
2022/06/21 06:12:41;;;;;;;3.47;0.70;;;21.40;60.70;;;;;;5069065;28;20139;-60
2022/06/21 06:15:10;;;;;;;2.15;0.60;;;21.40;60.70;;;;;;5052871;28;20056;-61
2022/06/21 06:17:48;;;;;;;1.88;0.70;;;21.40;60.70;;;;;;5085745;28;20037;-61
2022/06/21 06:20:19;;;;;;;2.50;0.73;;;21.40;60.60;;;;;;5053317;28;20116;-61
2022/06/21 06:23:09;;;;;;;1.70;0.60;;;21.40;60.60;;;;;;5051781;28;20053;-60
2022/06/21 06:26:14;;;;;;;3.25;0.80;;;21.40;60.60;;;;;;5071100;28;20107;-61
2022/06/21 06:28:56;;;;;;;2.28;0.68;;;21.40;60.70;;;;;;5050845;28;20056;-61
2022/06/21 06:31:37;;;;;;;1.83;0.70;;;21.40;60.80;;;;;;5034120;28;20075;-61
2022/06/21 06:34:05;;;;;;;2.03;0.80;;;21.40;60.80;;;;;;5051657;28;20065;-61
2022/06/21 06:36:39;;;;;;;2.28;0.85;;;21.40;60.80;;;;;;5084080;28;20095;-60
2022/06/21 06:39:17;;;;;;;1.27;0.73;;;21.40;60.80;;;;;;5068223;28;20056;-60
2022/06/21 06:41:49;;;;;;;;;;;21.40;60.80;;;;;;5084272;28;20045;-60
2022/06/21 06:44:15;;;;;;;2.85;0.80;;;21.40;60.80;;;;;;5051255;28;20039;-61
2022/06/21 06:46:43;;;;;;;2.08;0.50;;;21.50;60.80;;;;;;5067961;28;20071;-61
2022/06/21 06:49:20;;;;;;;1.98;0.60;;;21.40;60.80;;;;;;5056810;28;20037;-60
2022/06/21 06:51:49;;;;;;;1.40;0.52;;;21.50;60.80;;;;;;5069065;28;20515;-61
2022/06/21 06:54:20;;;;;;;1.80;0.68;;;21.50;60.80;;;;;;5072876;28;20074;-60
2022/06/21 06:57:02;;;;;;;1.95;0.60;;;21.50;60.90;;;;;;5071409;28;20051;-60
2022/06/21 06:59:28;;;;;;;1.70;0.75;;;21.50;60.90;;;;;;5071500;28;20041;-61
2022/06/21 07:02:00;;;;;;;4.28;0.80;;;21.50;60.90;;;;;;5072734;28;20040;-61
2022/06/21 07:04:29;;;;;;;2.95;0.85;;;21.60;61.00;;;;;;5071161;28;20048;-61
2022/06/21 07:06:58;;;;;;;2.92;0.60;;;21.60;61.00;;;;;;5071075;28;20373;-61
2022/06/21 07:09:29;;;;;;;2.17;0.75;;;21.60;60.90;;;;;;5071612;28;20128;-60
2022/06/21 07:12:08;;;;;;;3.55;0.68;;;21.60;60.90;;;;;;5070235;28;20087;-60
2022/06/21 07:14:33;;;;;;;3.20;0.90;;;21.70;61.10;;;;;;5071682;28;20040;-61
2022/06/21 07:17:07;;;;;;;4.13;0.77;;;21.70;61.00;;;;;;5072326;28;20527;-61
2022/06/21 07:19:32;;;;;;;3.00;0.82;;;21.70;61.10;;;;;;5087624;28;20032;-62
2022/06/21 07:21:59;;;;;;;6.13;0.75;;;21.70;61.20;;;;;;5070235;28;20198;-60
2022/06/21 07:24:24;;;;;;;2.17;0.80;;;21.80;61.30;;;;;;5072269;28;20494;-62
2022/06/21 07:26:59;;;;;;;3.03;0.80;;;21.80;61.50;;;;;;5071604;28;20484;-61
2022/06/21 07:29:33;;;;;;;2.97;0.70;;;21.80;61.60;;;;;;5071119;28;20044;-61
2022/06/21 07:32:09;;;;;;;2.33;0.80;;;21.80;61.70;;;;;;5071088;28;20115;-61
2022/06/21 07:34:57;;;;;;;5.50;1.15;;;21.80;61.70;;;;;;5070547;28;20088;-61
2022/06/21 07:37:35;;;;;;;2.97;0.70;;;21.90;61.90;;;;;;5071302;28;20063;-61
2022/06/21 07:40:20;;;;;;;2.83;0.75;;;21.90;61.80;;;;;;5070197;28;20059;-61
2022/06/21 07:42:49;;;;;;;2.17;0.80;;;21.90;61.80;;;;;;5071040;28;20048;-61
2022/06/21 07:45:24;;;;;;;4.50;0.90;;;21.90;61.80;;;;;;5054533;28;20098;-62
2022/06/21 07:47:59;;;;;;;3.55;1.23;;;22.00;61.80;;;;;;5070257;28;20051;-62
2022/06/21 07:50:38;;;;;;;2.20;0.77;;;22.00;61.70;;;;;;5088243;28;20083;-61
2022/06/21 07:53:18;;;;;;;2.58;0.80;;;22.10;61.80;;;;;;5070805;28;20041;-62
2022/06/21 07:55:53;;;;;;;3.65;0.70;;;22.00;61.70;;;;;;5070323;28;20066;-62
2022/06/21 07:58:33;;;;;;;3.42;0.80;;;22.00;61.70;;;;;;5071071;28;20041;-61
2022/06/21 08:06:44;;;;;;;3.25;0.70;;;22.10;61.80;;;;;;5071193;28;20496;-61
2022/06/21 08:09:29;;;;;;;2.50;0.70;;;22.00;61.70;;;;;;5070475;28;20052;-62
2022/06/21 08:12:00;;;;;;;1.85;0.65;;;22.10;61.80;;;;;;5070469;28;20435;-62
2022/06/21 08:14:27;;;;;;;4.38;0.80;;;22.10;61.70;;;;;;5070801;28;20491;-61
2022/06/21 08:17:05;;;;;;;3.13;1.00;;;22.10;61.70;;;;;;5070165;28;20044;-60
2022/06/21 08:20:01;;;;;;;2.60;0.80;;;22.10;61.70;;;;;;5072415;28;20045;-62
2022/06/21 08:22:39;;;;;;;2.88;0.60;;;22.10;61.60;;;;;;5064494;28;20491;-61
2022/06/21 08:25:27;;;;;;;3.38;0.82;;;22.10;61.60;;;;;;5070854;28;20499;-60
2022/06/21 08:27:52;;;;;;;;;;;22.10;62.20;;;;;;5071733;28;20037;-60
2022/06/21 08:30:43;;;;;;;3.28;0.90;;;22.10;61.50;;;;;;5070778;28;20353;-61
2022/06/21 08:33:11;;;;;;;2.80;0.90;;;22.10;61.60;;;;;;5066128;28;20072;-61
2022/06/21 08:35:50;;;;;;;3.60;0.80;;;22.10;61.60;;;;;;5070841;28;20059;-60
2022/06/21 08:38:34;;;;;;;5.05;0.65;;;22.10;61.40;;;;;;5070375;28;20084;-61
2022/06/21 08:41:05;;;;;;;5.32;0.70;;;22.10;61.30;;;;;;5054002;28;20131;-61
2022/06/21 08:43:53;;;;;;;4.13;0.80;;;22.10;61.30;;;;;;5074499;28;20076;-61
2022/06/21 08:46:39;;;;;;;4.93;0.85;;;22.10;61.20;;;;;;5074073;28;20438;-59
2022/06/21 08:49:23;;;;;;;4.88;0.70;;;22.10;61.10;;;;;;5075267;28;20136;-61
2022/06/21 08:52:03;;;;;;;4.15;0.90;;;22.10;61.10;;;;;;5072367;28;20051;-61
2022/06/21 08:54:42;;;;;;;4.10;0.70;;;22.10;61.10;;;;;;5074101;28;20045;-61
2022/06/21 08:57:33;;;;;;;2.58;0.68;;;22.10;61.00;;;;;;5073386;28;20045;-59
2022/06/21 09:00:24;;;;;;;5.40;0.90;;;22.10;60.80;;;;;;5071054;28;20871;-61
2022/06/21 09:03:25;;;;;;;4.03;1.13;;;22.10;60.90;;;;;;5073554;28;20044;-61
2022/06/21 09:05:57;;;;;;;1.85;0.80;;;22.00;61.00;;;;;;5074010;28;20400;-61
2022/06/21 09:08:30;;;;;;;2.53;1.02;;;22.00;61.00;;;;;;5075167;28;20115;-62
2022/06/21 09:11:15;;;;;;;3.88;0.88;;;22.00;61.10;;;;;;5072832;28;20037;-62
2022/06/21 09:14:01;;;;;;;3.13;0.70;;;22.00;61.20;;;;;;5074693;28;20120;-62
2022/06/21 09:16:33;;;;;;;3.22;0.90;;;22.00;61.20;;;;;;5073813;28;20045;-62
2022/06/21 09:19:02;;;;;;;3.97;1.00;;;22.00;61.20;;;;;;5072525;28;20033;-62
2022/06/21 09:21:45;;;;;;;0.98;0.50;;;22.00;61.20;;;;;;5074635;28;20071;-61
2022/06/21 09:24:22;;;;;;;3.03;0.70;;;22.00;61.10;;;;;;5073415;28;20045;-62
2022/06/21 09:26:50;;;;;;;2.60;0.80;;;22.00;61.20;;;;;;5073834;28;20046;-61
2022/06/21 09:29:36;;;;;;;4.30;1.23;;;22.00;61.30;;;;;;5073439;28;20159;-62
2022/06/21 09:32:26;;;;;;;3.60;0.77;;;22.00;61.40;;;;;;5072341;28;20412;-62
2022/06/21 09:35:13;;;;;;;3.03;0.90;;;22.10;61.40;;;;;;5074380;28;20044;-62
2022/06/21 09:38:00;;;;;;;3.17;0.70;;;22.10;61.50;;;;;;5073570;28;20048;-61
2022/06/21 09:40:36;;;;;;;3.60;0.80;;;22.10;61.50;;;;;;5069465;28;20041;-62
2022/06/21 09:43:07;;;;;;;4.25;0.80;;;22.10;61.50;;;;;;5071852;28;20401;-61
2022/06/21 09:46:14;;;;;;;1.77;0.90;;;22.00;61.50;;;;;;5072921;28;20067;-62
2022/06/21 09:48:53;;;;;;;3.25;0.85;;;22.10;61.60;;;;;;5068408;28;20049;-62
2022/06/21 09:51:43;;;;;;;4.80;1.10;;;22.10;62.20;;;;;;5070572;28;20499;-61
2022/06/21 09:54:30;;;;;;;1.95;0.70;;;22.10;61.50;;;;;;5072220;28;20036;-61
2022/06/21 09:57:09;;;;;;;3.63;0.90;;;22.10;61.40;;;;;;5061315;28;20044;-60
2022/06/21 09:59:49;;;;;;;3.08;0.70;;;22.10;61.40;;;;;;5035289;28;20045;-61
2022/06/21 10:02:21;;;;;;;2.40;0.70;;;22.10;61.60;;;;;;5053476;28;20109;-61
2022/06/21 10:05:03;;;;;;;5.60;0.88;;;22.10;61.60;;;;;;5072990;28;20040;-61
2022/06/21 10:07:45;;;;;;;4.75;1.00;;;22.10;61.60;;;;;;5071960;28;20455;-61
2022/06/21 10:10:45;;;;;;;3.88;0.80;;;22.10;61.60;;;;;;5073527;28;20107;-61
2022/06/21 10:13:16;;;;;;;3.17;0.80;;;22.10;61.60;;;;;;5071521;28;20041;-61
2022/06/21 10:16:19;;;;;;;2.20;0.60;;;22.10;61.60;;;;;;5072441;28;20036;-61
2022/06/21 10:19:17;;;;;;;2.20;0.75;;;22.10;61.60;;;;;;5071868;28;20064;-61
2022/06/21 10:21:49;;;;;;;2.75;0.80;;;22.10;61.60;;;;;;5047187;28;20048;-62
2022/06/21 10:24:25;;;;;;;5.10;0.85;;;22.10;61.60;;;;;;5070558;28;20049;-61
2022/06/21 10:27:09;;;;;;;4.78;0.82;;;22.10;61.60;;;;;;5070167;28;20044;-61
2022/06/21 10:30:06;;;;;;;3.88;0.75;;;22.10;61.60;;;;;;5071676;28;20043;-62
2022/06/21 10:32:59;;;;;;;1.37;0.60;;;22.10;61.70;;;;;;5071583;28;20119;-62
2022/06/21 10:35:43;;;;;;;3.85;1.10;;;22.10;61.70;;;;;;5070499;28;20041;-63
2022/06/21 10:38:32;;;;;;;4.65;0.90;;;22.10;61.70;;;;;;5072124;28;20488;-62
2022/06/21 10:41:19;;;;;;;2.78;0.70;;;22.20;61.80;;;;;;5056213;28;20044;-62
2022/06/21 10:44:03;;;;;;;3.23;1.20;;;22.20;61.80;;;;;;5068501;28;20040;-63
2022/06/21 10:46:37;;;;;;;2.50;0.70;;;22.20;61.90;;;;;;5069852;28;20043;-64
2022/06/21 10:49:50;;;;;;;2.75;0.80;;;22.20;61.90;;;;;;5066991;28;20028;-62
2022/06/21 10:52:35;;;;;;;5.25;0.82;;;22.20;62.00;;;;;;5055866;28;20051;-61
2022/06/21 10:55:24;;;;;;;1.80;0.60;;;22.20;61.80;;;;;;5071026;28;20123;-61
2022/06/21 10:58:05;;;;;;;5.75;0.93;;;22.20;61.60;;;;;;5094696;28;20037;-61
2022/06/21 11:03:20;;;;;;;2.55;0.70;;;22.20;61.50;;;;;;5050966;28;20143;-61
2022/06/21 11:05:49;;;;;;;2.22;0.90;;;22.20;61.60;;;;;;5052245;28;20127;-61
2022/06/21 11:08:47;;;;;;;2.45;0.75;;;22.20;61.70;;;;;;5070230;28;20045;-61
2022/06/21 11:11:40;;;;;;;3.20;0.85;;;22.20;61.40;;;;;;5071542;28;20495;-61
2022/06/21 11:14:24;;;;;;;3.58;0.90;;;22.30;61.50;;;;;;5071720;28;20079;-61
2022/06/21 11:17:09;;;;;;;4.20;0.85;;;22.30;61.50;;;;;;5072531;28;20097;-61
2022/06/21 11:19:50;;;;;;;3.60;0.90;;;22.20;61.50;;;;;;5066906;28;20040;-58
2022/06/21 11:22:26;;;;;;;2.30;0.95;;;22.20;61.50;;;;;;5072183;28;20052;-59
2022/06/21 11:25:14;;;;;;;2.33;0.77;;;22.20;61.50;;;;;;5070180;28;20468;-59
2022/06/21 11:28:09;;;;;;;2.65;0.98;;;22.20;61.50;;;;;;5072480;28;20045;-59
2022/06/21 11:30:56;;;;;;;3.72;1.17;;;22.20;61.40;;;;;;5052076;28;20052;-60
2022/06/21 11:34:12;;;;;;;1.50;0.73;;;22.20;61.50;;;;;;5069629;28;20036;-60
2022/06/21 11:36:50;;;;;;;2.83;0.90;;;22.20;61.50;;;;;;5046615;28;20064;-59
2022/06/21 11:39:40;;;;;;;3.80;0.70;;;22.20;61.50;;;;;;5068464;28;20053;-60
2022/06/21 11:42:27;;;;;;;4.90;1.00;;;22.20;61.50;;;;;;5069279;28;20059;-59
2022/06/21 11:45:14;;;;;;;3.92;1.25;;;22.20;61.60;;;;;;5070758;28;20043;-61
2022/06/21 11:48:04;;;;;;;6.30;1.85;;;22.20;61.50;;;;;;5071441;28;20492;-60
2022/06/21 11:50:58;;;;;;;6.43;2.00;;;22.20;61.40;;;;;;5070894;28;20070;-59
2022/06/21 11:53:39;;;;;;;8.88;1.92;;;22.20;61.30;;;;;;5070599;28;20069;-61
2022/06/21 11:56:18;;;;;;;6.72;2.13;;;22.20;61.20;;;;;;5072231;28;20119;-62
2022/06/21 11:58:52;;;;;;;6.47;2.40;;;22.20;61.20;;;;;;5072169;28;20045;-62
2022/06/21 12:01:23;;;;;;;5.38;1.90;;;22.20;61.20;;;;;;5070252;28;20048;-61
2022/06/21 12:04:00;;;;;;;6.80;2.40;;;22.30;61.30;;;;;;5070808;28;20123;-62
2022/06/21 12:06:38;;;;;;;8.30;2.47;;;22.30;61.20;;;;;;5072211;28;20044;-62
2022/06/21 12:09:40;;;;;;;6.85;2.53;;;22.30;61.20;;;;;;5070370;28;20048;-62
2022/06/21 12:12:09;;;;;;;7.63;1.63;;;22.30;61.80;;;;;;5067839;28;20403;-62
2022/06/21 12:14:48;;;;;;;6.35;2.20;;;22.30;61.20;;;;;;5070294;28;20097;-64
2022/06/21 12:17:20;;;;;;;8.40;2.25;;;22.30;61.30;;;;;;5056046;28;20411;-62
2022/06/21 12:19:46;;;;;;;7.55;2.05;;;22.30;61.20;;;;;;5072597;28;20044;-62
2022/06/21 12:22:33;;;;;;;6.22;1.90;;;22.40;61.30;;;;;;5072873;28;20060;-62
2022/06/21 12:24:59;;;;;;;6.40;1.85;;;22.40;61.30;;;;;;5073634;28;20412;-63
2022/06/21 12:27:25;;;;;;;5.90;1.90;;;22.40;61.40;;;;;;5073985;28;20484;-62
2022/06/21 12:29:55;;;;;;;5.13;2.00;;;22.40;61.40;;;;;;5073314;28;20037;-63
2022/06/21 12:32:22;;;;;;;6.47;2.03;;;22.40;61.40;;;;;;5057745;28;20044;-63
2022/06/21 12:35:01;;;;;;;6.40;2.00;;;22.40;61.30;;;;;;5056035;28;20480;-62
2022/06/21 12:37:31;;;;;;;7.70;1.83;;;22.40;61.40;;;;;;5070935;28;20123;-62
2022/06/21 12:40:18;;;;;;;4.45;1.73;;;22.40;61.30;;;;;;5073680;28;20055;-63
2022/06/21 12:42:53;;;;;;;5.72;1.85;;;22.40;61.30;;;;;;5073614;28;20385;-63
2022/06/21 12:45:27;;;;;;;5.47;1.63;;;22.40;61.40;;;;;;5074085;28;20055;-64
2022/06/21 12:48:17;;;;;;;4.78;1.40;;;22.40;61.40;;;;;;5075321;28;20051;-63
2022/06/21 12:50:52;;;;;;;5.22;1.92;;;22.40;61.30;;;;;;5074531;28;20047;-63
2022/06/21 12:53:27;;;;;;;8.00;2.08;;;22.50;61.30;;;;;;5073642;28;20051;-63
2022/06/21 12:56:22;;;;;;;6.20;1.77;;;22.50;61.30;;;;;;5074410;28;20045;-63
2022/06/21 12:59:29;;;;;;;4.97;1.80;;;22.50;61.40;;;;;;5058358;28;20442;-62
2022/06/21 13:02:32;;;;;;;4.82;1.50;;;22.50;61.30;;;;;;5073442;28;20504;-62
2022/06/21 13:05:19;;;;;;;9.05;1.75;;;22.50;61.30;;;;;;5072610;28;20040;-61
2022/06/21 13:08:06;;;;;;;6.25;1.80;;;22.50;61.30;;;;;;5074795;28;20088;-61
2022/06/21 13:10:38;;;;;;;6.85;1.75;;;22.50;61.30;;;;;;5073202;28;20072;-61
2022/06/21 13:13:23;;;;;;;4.45;1.95;;;22.50;61.30;;;;;;5073782;28;20071;-61
2022/06/21 13:15:57;;;;;;;6.75;1.63;;;22.50;61.40;;;;;;5073310;28;20037;-62
2022/06/21 13:19:00;;;;;;;6.53;1.45;;;22.50;61.20;;;;;;5074311;28;20047;-62
2022/06/21 13:21:33;;;;;;;7.53;1.88;;;22.50;61.10;;;;;;5074533;28;20498;-63
2022/06/21 13:24:03;;;;;;;3.58;1.42;;;22.50;61.10;;;;;;5073618;28;20103;-63
2022/06/21 13:26:47;;;;;;;6.95;1.67;;;22.50;61.10;;;;;;5073083;28;20412;-62
2022/06/21 13:29:33;;;;;;;4.25;1.38;;;22.60;61.30;;;;;;5073721;28;20476;-63
2022/06/21 13:32:02;;;;;;;5.97;1.55;;;22.60;61.30;;;;;;5057798;28;20044;-63
2022/06/21 13:34:27;;;;;;;4.70;1.48;;;22.50;61.30;;;;;;5057221;28;20476;-63
2022/06/21 13:36:54;;;;;;;5.35;1.73;;;22.60;61.40;;;;;;5074226;28;20086;-62
2022/06/21 13:40:02;;;;;;;7.93;1.83;;;22.60;61.30;;;;;;5072378;28;20048;-62
2022/06/21 13:42:43;;;;;;;5.10;1.67;;;22.60;61.40;;;;;;5074328;28;20076;-62
2022/06/21 13:45:34;;;;;;;5.55;1.40;;;22.60;61.40;;;;;;5069778;28;20045;-63
2022/06/21 13:48:17;;;;;;;5.57;1.30;;;22.60;61.40;;;;;;5073073;28;20052;-61